createdAt,value
2023-03-04T00:00:46.509Z,27.34
2023-03-04T00:01:45.499Z,27.34
2023-03-04T00:02:45.380Z,27.02
2023-03-04T00:03:45.718Z,27.02
2023-03-04T00:04:46.086Z,27.34
2023-03-04T00:05:49.802Z,27.34
2023-03-04T00:06:48.015Z,27.34
2023-03-04T00:07:48.879Z,27.34
2023-03-04T00:08:48.261Z,27.34
2023-03-04T00:09:47.613Z,27.34
2023-03-04T00:10:49.301Z,26.70
2023-03-04T00:11:48.266Z,27.02
2023-03-04T00:12:48.749Z,26.38
2023-03-04T00:13:48.618Z,26.38
2023-03-04T00:14:50.024Z,27.02
2023-03-04T00:15:51.388Z,26.70
2023-03-04T00:16:51.851Z,27.02
2023-03-04T00:17:49.867Z,27.02
2023-03-04T00:18:51.723Z,27.02
2023-03-04T00:19:50.672Z,27.02
2023-03-04T00:20:51.427Z,27.02
2023-03-04T00:21:51.830Z,27.02
2023-03-04T00:22:51.782Z,27.34
2023-03-04T00:23:54.173Z,27.02
2023-03-04T00:24:55.276Z,27.34
2023-03-04T00:25:54.670Z,27.34
2023-03-04T00:26:56.461Z,27.02
2023-03-04T00:27:53.565Z,27.34
2023-03-04T00:28:54.534Z,27.34
2023-03-04T00:29:54.109Z,27.02
2023-03-04T00:30:53.916Z,27.34
2023-03-04T00:31:54.297Z,27.02
2023-03-04T00:32:55.846Z,27.02
2023-03-04T00:33:54.708Z,27.02
2023-03-04T00:34:58.037Z,27.02
2023-03-04T00:35:56.706Z,27.02
2023-03-04T00:37:00.225Z,27.02
2023-03-04T00:37:58.011Z,27.02
2023-03-04T00:38:58.045Z,27.02
2023-03-04T00:39:56.538Z,27.02
2023-03-04T00:40:57.574Z,27.02
2023-03-04T00:41:56.515Z,27.34
2023-03-04T00:42:58.082Z,27.34
2023-03-04T00:43:57.166Z,27.34
2023-03-04T00:44:59.348Z,27.02
2023-03-04T00:45:57.793Z,26.70
2023-03-04T00:46:59.281Z,26.70
2023-03-04T00:47:58.111Z,26.70
2023-03-04T00:48:58.522Z,27.02
2023-03-04T00:49:58.851Z,27.02
2023-03-04T00:50:59.291Z,27.02
2023-03-04T00:51:59.805Z,27.02
2023-03-04T00:53:00.222Z,27.02
2023-03-04T00:54:01.086Z,27.34
2023-03-04T00:55:01.983Z,27.34
2023-03-04T00:56:03.386Z,27.02
2023-03-04T00:57:03.374Z,27.02
2023-03-04T00:58:03.093Z,27.02
2023-03-04T00:59:04.077Z,27.02
2023-03-04T01:00:02.562Z,27.34
2023-03-04T01:01:03.565Z,27.02
2023-03-04T01:02:03.140Z,27.02
2023-03-04T01:03:04.731Z,27.02
2023-03-04T01:04:03.307Z,27.02
2023-03-04T01:05:04.260Z,27.02
2023-03-04T01:06:04.652Z,27.02
2023-03-04T01:07:04.465Z,27.02
2023-03-04T01:08:04.734Z,27.34
2023-03-04T01:09:05.512Z,27.02
2023-03-04T01:10:04.336Z,27.02
2023-03-04T01:11:05.622Z,27.02
2023-03-04T01:12:06.933Z,27.34
2023-03-04T01:13:05.363Z,27.02
2023-03-04T01:14:05.713Z,27.02
2023-03-04T01:15:06.180Z,27.34
2023-03-04T01:16:06.103Z,27.02
2023-03-04T01:17:06.389Z,27.02
2023-03-04T01:18:06.818Z,27.02
2023-03-04T01:19:07.151Z,27.02
2023-03-04T01:21:27.696Z,27.67
2023-03-04T01:22:26.289Z,27.02
2023-03-04T01:23:27.075Z,27.34
2023-03-04T01:24:27.866Z,27.02
2023-03-04T01:25:27.187Z,26.70
2023-03-04T01:26:30.732Z,26.70
2023-03-04T01:27:27.747Z,26.70
2023-03-04T01:28:27.920Z,26.70
2023-03-04T01:29:30.161Z,27.02
2023-03-04T01:30:28.411Z,26.70
2023-03-04T01:31:28.272Z,26.70
2023-03-04T01:32:28.745Z,26.38
2023-03-04T01:33:31.040Z,26.38
2023-03-04T01:34:32.212Z,27.02
2023-03-04T01:35:29.862Z,26.70
2023-03-04T01:36:33.099Z,26.70
2023-03-04T01:37:29.979Z,26.70
2023-03-04T01:38:31.403Z,26.38
2023-03-04T01:39:31.578Z,26.70
2023-03-04T01:40:32.781Z,26.70
2023-03-04T01:41:32.163Z,26.70
2023-03-04T01:42:32.478Z,26.70
2023-03-04T01:43:31.877Z,26.70
2023-03-04T01:44:33.136Z,26.70
2023-03-04T01:45:32.544Z,26.70
2023-03-04T01:46:35.459Z,26.70
2023-03-04T01:47:32.847Z,26.70
2023-03-04T01:48:34.278Z,26.70
2023-03-04T01:49:33.679Z,26.70
2023-03-04T01:50:34.930Z,27.02
2023-03-04T01:51:34.210Z,26.70
2023-03-04T01:52:35.434Z,26.38
2023-03-04T01:53:34.792Z,26.70
2023-03-04T01:54:35.192Z,26.70
2023-03-04T01:55:35.766Z,26.70
2023-03-04T01:56:41.952Z,26.70
2023-03-04T01:57:36.759Z,26.70
2023-03-04T01:58:37.990Z,26.70
2023-03-04T01:59:36.476Z,26.70
2023-03-04T02:00:36.909Z,26.70
2023-03-04T02:01:38.476Z,26.70
2023-03-04T02:02:37.415Z,26.70
2023-03-04T02:03:37.844Z,26.70
2023-03-04T02:04:39.832Z,26.70
2023-03-04T02:05:41.657Z,26.70
2023-03-04T02:06:41.699Z,26.70
2023-03-04T02:07:40.373Z,26.70
2023-03-04T02:08:39.612Z,26.70
2023-03-04T02:09:39.474Z,26.70
2023-03-04T02:10:41.908Z,26.70
2023-03-04T02:11:40.440Z,26.70
2023-03-04T02:12:41.841Z,27.02
2023-03-04T02:13:42.059Z,26.70
2023-03-04T02:14:41.356Z,26.70
2023-03-04T02:15:43.279Z,26.70
2023-03-04T02:16:44.102Z,27.02
2023-03-04T02:17:42.090Z,26.70
2023-03-04T02:18:42.547Z,27.02
2023-03-04T02:19:43.877Z,26.70
2023-03-04T02:20:43.187Z,27.02
2023-03-04T02:21:43.521Z,26.70
2023-03-04T02:22:44.909Z,26.70
2023-03-04T02:23:44.261Z,26.70
2023-03-04T02:24:44.720Z,26.70
2023-03-04T02:25:46.433Z,26.70
2023-03-04T02:26:47.431Z,26.70
2023-03-04T02:27:45.332Z,27.02
2023-03-04T02:28:46.619Z,26.70
2023-03-04T02:29:46.924Z,26.70
2023-03-04T02:30:46.288Z,26.70
2023-03-04T02:31:47.666Z,26.70
2023-03-04T02:32:47.941Z,26.70
2023-03-04T02:33:47.320Z,26.70
2023-03-04T02:34:50.193Z,26.70
2023-03-04T02:35:49.189Z,26.70
2023-03-04T02:36:50.157Z,26.38
2023-03-04T02:37:50.879Z,26.70
2023-03-04T02:38:49.376Z,27.02
2023-03-04T02:39:49.379Z,26.70
2023-03-04T02:40:49.956Z,27.02
2023-03-04T02:41:49.811Z,25.73
2023-03-04T02:42:50.195Z,26.05
2023-03-04T02:43:50.751Z,26.05
2023-03-04T02:44:53.003Z,26.38
2023-03-04T02:45:51.037Z,25.41
2023-03-04T02:46:54.115Z,26.38
2023-03-04T02:47:51.341Z,25.41
2023-03-04T02:48:52.175Z,25.41
2023-03-04T02:49:51.443Z,26.38
2023-03-04T02:50:51.749Z,26.05
2023-03-04T02:51:52.360Z,26.05
2023-03-04T02:52:54.170Z,26.05
2023-03-04T02:53:52.574Z,26.38
2023-03-04T02:54:52.961Z,26.38
2023-03-04T02:55:54.398Z,26.38
2023-03-04T02:56:55.910Z,26.05
2023-03-04T02:57:55.008Z,26.05
2023-03-04T02:58:54.287Z,26.05
2023-03-04T02:59:54.635Z,26.05
2023-03-04T03:00:54.900Z,26.05
2023-03-04T03:01:56.211Z,26.05
2023-03-04T03:02:56.502Z,25.73
2023-03-04T03:03:57.892Z,26.05
2023-03-04T03:04:57.462Z,26.05
2023-03-04T03:05:57.409Z,26.05
2023-03-04T03:06:58.727Z,26.05
2023-03-04T03:07:57.294Z,26.05
2023-03-04T03:08:57.211Z,26.05
2023-03-04T03:09:57.491Z,25.73
2023-03-04T03:10:57.967Z,25.73
2023-03-04T03:11:58.343Z,25.73
2023-03-04T03:12:58.776Z,25.73
2023-03-04T03:14:00.691Z,26.05
2023-03-04T03:14:59.514Z,26.05
2023-03-04T03:15:59.971Z,26.05
2023-03-04T03:17:00.339Z,26.38
2023-03-04T03:18:02.743Z,26.05
2023-03-04T03:19:02.251Z,26.38
2023-03-04T03:20:02.082Z,26.05
2023-03-04T03:21:02.358Z,26.38
2023-03-04T03:22:03.227Z,26.38
2023-03-04T03:23:03.611Z,26.38
2023-03-04T03:24:03.005Z,26.05
2023-03-04T03:25:05.398Z,26.05
2023-03-04T03:26:04.851Z,26.38
2023-03-04T03:27:04.680Z,26.38
2023-03-04T03:28:04.284Z,26.38
2023-03-04T03:29:04.852Z,26.05
2023-03-04T03:30:05.313Z,26.05
2023-03-04T03:31:05.017Z,26.05
2023-03-04T03:32:06.456Z,26.05
2023-03-04T03:33:05.621Z,26.05
2023-03-04T03:34:06.536Z,26.05
2023-03-04T03:35:06.537Z,26.05
2023-03-04T03:36:07.049Z,26.38
2023-03-04T03:37:06.629Z,26.70
2023-03-04T03:38:07.276Z,26.38
2023-03-04T03:39:07.389Z,26.38
2023-03-04T03:40:07.491Z,26.70
2023-03-04T03:41:07.436Z,26.38
2023-03-04T03:42:07.689Z,26.70
2023-03-04T03:43:07.958Z,26.70
2023-03-04T03:44:08.287Z,26.70
2023-03-04T03:45:08.505Z,26.05
2023-03-04T03:46:08.655Z,26.05
2023-03-04T03:47:09.084Z,26.05
2023-03-04T03:48:09.133Z,26.38
2023-03-04T03:49:09.327Z,26.05
2023-03-04T03:50:09.631Z,26.38
2023-03-04T03:51:09.952Z,26.38
2023-03-04T03:52:10.067Z,26.05
2023-03-04T03:53:10.227Z,26.05
2023-03-04T03:54:11.155Z,26.38
2023-03-04T03:55:10.800Z,26.38
2023-03-04T03:56:11.274Z,26.05
2023-03-04T03:57:12.160Z,26.05
2023-03-04T03:58:11.570Z,26.05
2023-03-04T03:59:11.557Z,26.38
2023-03-04T04:00:11.857Z,26.38
2023-03-04T04:01:12.433Z,26.70
2023-03-04T04:02:11.805Z,26.38
2023-03-04T04:03:13.969Z,26.38
2023-03-04T04:04:12.825Z,26.38
2023-03-04T04:05:13.304Z,26.38
2023-03-04T04:06:12.735Z,26.38
2023-03-04T04:07:13.138Z,26.38
2023-03-04T04:08:13.603Z,26.05
2023-03-04T04:09:13.973Z,26.38
2023-03-04T04:10:15.271Z,26.70
2023-03-04T04:11:15.756Z,26.38
2023-03-04T04:12:15.116Z,26.38
2023-03-04T04:13:16.327Z,26.05
2023-03-04T04:14:15.641Z,26.38
2023-03-04T04:15:16.962Z,26.38
2023-03-04T04:16:16.255Z,26.38
2023-03-04T04:17:16.633Z,26.38
2023-03-04T04:18:17.004Z,26.38
2023-03-04T04:19:17.411Z,26.38
2023-03-04T04:20:19.098Z,26.38
2023-03-04T04:21:17.978Z,26.38
2023-03-04T04:22:18.274Z,26.38
2023-03-04T04:23:21.042Z,26.05
2023-03-04T04:24:19.753Z,26.05
2023-03-04T04:25:19.095Z,26.05
2023-03-04T04:26:20.427Z,26.38
2023-03-04T04:27:19.749Z,26.38
2023-03-04T04:28:21.050Z,26.38
2023-03-04T04:29:20.550Z,26.38
2023-03-04T04:30:20.860Z,26.05
2023-03-04T04:31:21.448Z,26.05
2023-03-04T04:32:22.982Z,26.38
2023-03-04T04:33:23.987Z,26.38
2023-03-04T04:34:21.800Z,26.38
2023-03-04T04:35:25.125Z,26.38
2023-03-04T04:36:25.846Z,26.38
2023-03-04T04:37:22.739Z,26.38
2023-03-04T04:38:23.189Z,26.05
2023-03-04T04:39:23.536Z,26.05
2023-03-04T04:40:24.057Z,26.05
2023-03-04T04:41:24.827Z,26.38
2023-03-04T04:42:24.081Z,26.38
2023-03-04T04:43:25.371Z,26.38
2023-03-04T04:44:24.837Z,26.05
2023-03-04T04:45:26.152Z,26.05
2023-03-04T04:46:25.511Z,26.05
2023-03-04T04:47:26.774Z,26.05
2023-03-04T04:48:28.076Z,26.38
2023-03-04T04:49:26.316Z,26.38
2023-03-04T04:50:27.540Z,26.70
2023-03-04T04:51:26.841Z,26.38
2023-03-04T04:52:28.572Z,26.70
2023-03-04T04:53:28.488Z,26.38
2023-03-04T04:54:27.850Z,26.38
2023-03-04T04:55:30.271Z,26.05
2023-03-04T04:56:28.190Z,26.05
2023-03-04T04:57:28.713Z,26.05
2023-03-04T04:58:28.827Z,26.38
2023-03-04T04:59:29.026Z,26.05
2023-03-04T05:00:29.005Z,26.05
2023-03-04T05:01:29.495Z,26.38
2023-03-04T05:02:30.804Z,26.38
2023-03-04T05:03:31.713Z,26.38
2023-03-04T05:04:29.580Z,26.38
2023-03-04T05:05:31.540Z,26.38
2023-03-04T05:06:41.584Z,26.38
2023-03-04T05:07:30.425Z,26.70
2023-03-04T05:08:31.752Z,26.38
2023-03-04T05:09:31.020Z,26.38
2023-03-04T05:10:31.480Z,26.38
2023-03-04T05:11:31.656Z,26.38
2023-03-04T05:12:31.555Z,26.38
2023-03-04T05:13:34.606Z,26.38
2023-03-04T05:14:32.524Z,26.38
2023-03-04T05:15:34.527Z,26.05
2023-03-04T05:16:43.352Z,26.05
2023-03-04T05:17:33.520Z,26.38
2023-03-04T05:18:35.486Z,26.38
2023-03-04T05:19:34.468Z,26.38
2023-03-04T05:20:34.716Z,26.38
2023-03-04T05:21:34.921Z,26.38
2023-03-04T05:22:34.231Z,26.38
2023-03-04T05:23:35.964Z,26.38
2023-03-04T05:24:34.819Z,26.05
2023-03-04T05:25:35.205Z,26.05
2023-03-04T05:26:38.809Z,26.05
2023-03-04T05:27:35.831Z,26.05
2023-03-04T05:28:37.403Z,26.05
2023-03-04T05:29:38.710Z,26.38
2023-03-04T05:30:36.333Z,26.05
2023-03-04T05:31:36.730Z,26.05
2023-03-04T05:32:38.023Z,26.38
2023-03-04T05:33:37.380Z,26.38
2023-03-04T05:34:39.598Z,26.38
2023-03-04T05:35:37.918Z,26.38
2023-03-04T05:36:40.821Z,26.38
2023-03-04T05:37:38.473Z,26.38
2023-03-04T05:38:38.801Z,26.38
2023-03-04T05:39:39.094Z,26.38
2023-03-04T05:40:41.370Z,26.38
2023-03-04T05:41:40.594Z,26.38
2023-03-04T05:42:39.959Z,26.05
2023-03-04T05:43:40.342Z,26.38
2023-03-04T05:44:41.816Z,26.05
2023-03-04T05:45:42.819Z,26.05
2023-03-04T05:46:42.130Z,26.05
2023-03-04T05:47:42.285Z,26.05
2023-03-04T05:48:41.529Z,26.05
2023-03-04T05:49:41.796Z,26.05
2023-03-04T05:50:42.224Z,26.05
2023-03-04T05:51:42.627Z,26.05
2023-03-04T05:52:45.029Z,26.38
2023-03-04T05:53:43.389Z,26.38
2023-03-04T05:54:43.767Z,26.38
2023-03-04T05:55:45.778Z,26.38
2023-03-04T05:56:47.993Z,26.38
2023-03-04T05:57:46.721Z,26.38
2023-03-04T05:58:45.261Z,26.38
2023-03-04T05:59:46.121Z,26.38
